createdAt,value
2018-06-01T00:00:37.907Z,101338.34
2018-06-01T00:01:41.960Z,101330.22
2018-06-01T00:02:46.094Z,101327.02
2018-06-01T00:03:50.630Z,101330.77
2018-06-01T00:04:56.081Z,101323.75
2018-06-01T00:06:00.170Z,101323.10
2018-06-01T00:07:04.247Z,101328.05
2018-06-01T00:08:08.364Z,101330.92
2018-06-01T00:09:17.886Z,101327.34
2018-06-01T00:10:21.960Z,101322.56
2018-06-01T00:11:26.403Z,101323.20
2018-06-01T00:12:30.465Z,101322.81
2018-06-01T00:13:34.588Z,101321.20
2018-06-01T00:14:38.650Z,101313.84
2018-06-01T00:15:43.228Z,101317.60
2018-06-01T00:16:47.356Z,101321.83
2018-06-01T00:17:51.746Z,101317.69
2018-06-01T00:18:56.002Z,101317.23
2018-06-01T00:20:00.219Z,101318.17
2018-06-01T00:21:05.300Z,101318.53
2018-06-01T00:22:09.374Z,101306.70
2018-06-01T00:23:13.842Z,101313.07
2018-06-01T00:24:17.948Z,101316.38
2018-06-01T00:25:22.028Z,101311.37
2018-06-01T00:26:26.256Z,101305.80
2018-06-01T00:27:30.350Z,101306.76
2018-06-01T00:28:34.428Z,101300.05
2018-06-01T00:29:38.828Z,101298.30
2018-06-01T00:30:42.994Z,101301.34
2018-06-01T00:31:47.032Z,101300.42
2018-06-01T00:32:51.177Z,101297.77
2018-06-01T00:33:55.268Z,101296.45
2018-06-01T00:35:00.028Z,101294.20
2018-06-01T00:36:04.092Z,101291.91
2018-06-01T00:37:08.162Z,101285.88
2018-06-01T00:38:12.214Z,101287.35
2018-06-01T00:39:16.278Z,101283.09
2018-06-01T00:40:20.382Z,101287.67
2018-06-01T00:41:24.754Z,101280.07
2018-06-01T00:42:28.897Z,101280.20
2018-06-01T00:43:32.972Z,101279.31
2018-06-01T00:44:37.038Z,101276.00
2018-06-01T00:45:41.356Z,101278.83
2018-06-01T00:46:45.486Z,101275.70
2018-06-01T00:47:49.868Z,101278.86
2018-06-01T00:48:53.974Z,101278.14
2018-06-01T00:49:58.023Z,101280.07
2018-06-01T00:52:16.896Z,101280.50
2018-06-01T00:53:20.999Z,101281.36
2018-06-01T00:54:25.445Z,101283.47
2018-06-01T00:55:29.508Z,101286.20
2018-06-01T00:56:33.570Z,101289.65
2018-06-01T00:57:37.750Z,101285.26
2018-06-01T00:58:41.854Z,101286.66
2018-06-01T00:59:45.925Z,101291.16
2018-06-01T01:00:50.688Z,101294.39
2018-06-01T01:01:54.759Z,101289.57
2018-06-01T01:02:59.295Z,101290.53
2018-06-01T01:04:04.290Z,101288.42
2018-06-01T01:05:08.346Z,101294.89
2018-06-01T01:06:12.406Z,101290.98
2018-06-01T01:07:16.806Z,101289.80
2018-06-01T01:08:21.200Z,101294.98
2018-06-01T01:09:25.272Z,101297.69
2018-06-01T01:10:29.356Z,101295.22
2018-06-01T01:11:33.502Z,101294.50
2018-06-01T01:12:37.567Z,101302.24
2018-06-01T01:13:42.039Z,101303.31
2018-06-01T01:14:46.735Z,101297.00
2018-06-01T01:15:51.278Z,101301.65
2018-06-01T01:16:55.353Z,101301.70
2018-06-01T01:17:59.409Z,101296.34
2018-06-01T01:19:03.877Z,101296.39
2018-06-01T01:20:08.255Z,101300.02
2018-06-01T01:21:12.318Z,101302.49
2018-06-01T01:22:17.252Z,101299.50
2018-06-01T01:23:21.392Z,101298.82
2018-06-01T01:24:25.501Z,101301.72
2018-06-01T01:25:29.699Z,101302.25
2018-06-01T01:26:33.780Z,101302.69
2018-06-01T01:27:37.854Z,101301.92
2018-06-01T01:28:42.024Z,101306.11
2018-06-01T01:29:46.130Z,101299.02
2018-06-01T01:30:50.503Z,101306.31
2018-06-01T01:31:55.533Z,101302.16
2018-06-01T01:32:59.663Z,101303.52
2018-06-01T01:34:03.719Z,101312.34
2018-06-01T01:35:08.071Z,101309.21
2018-06-01T01:36:12.111Z,101304.66
2018-06-01T01:37:17.273Z,101303.69
2018-06-01T01:38:21.961Z,101308.81
2018-06-01T01:39:26.835Z,101305.63
2018-06-01T01:40:30.934Z,101312.16
2018-06-01T01:41:34.981Z,101309.55
2018-06-01T01:42:39.039Z,101313.80
2018-06-01T01:43:43.105Z,101312.88
2018-06-01T01:44:47.502Z,101308.67
2018-06-01T01:45:51.895Z,101306.27
2018-06-01T01:46:55.967Z,101304.56
2018-06-01T01:48:00.019Z,101298.88
2018-06-01T01:49:04.179Z,101303.75
2018-06-01T01:50:08.289Z,101302.88
2018-06-01T01:51:12.637Z,101306.60
2018-06-01T01:52:16.739Z,101309.02
2018-06-01T01:53:21.815Z,101304.03
2018-06-01T01:54:25.877Z,101302.01
2018-06-01T01:55:29.957Z,101311.96
2018-06-01T01:56:34.073Z,101305.10
2018-06-01T01:57:38.136Z,101309.98
2018-06-01T01:58:42.197Z,101306.45
2018-06-01T01:59:46.279Z,101309.39
2018-06-01T02:00:50.790Z,101306.75
2018-06-01T02:01:54.898Z,101308.52
2018-06-01T02:02:58.998Z,101311.63
2018-06-01T02:04:03.337Z,101305.63
2018-06-01T02:05:07.394Z,101315.88
2018-06-01T02:06:12.022Z,101310.56
2018-06-01T02:07:16.143Z,101313.95
2018-06-01T02:08:20.251Z,101312.40
2018-06-01T02:09:24.336Z,101312.94
2018-06-01T02:10:28.770Z,101309.73
2018-06-01T02:11:32.842Z,101315.28
2018-06-01T02:12:36.895Z,101310.70
2018-06-01T02:13:41.026Z,101312.01
2018-06-01T02:14:45.103Z,101318.14
2018-06-01T02:15:49.544Z,101322.94
2018-06-01T02:16:54.040Z,101319.83
2018-06-01T02:17:58.144Z,101313.22
2018-06-01T02:19:02.268Z,101314.36
2018-06-01T02:20:06.340Z,101317.30
2018-06-01T02:21:10.432Z,101310.30
2018-06-01T02:22:14.860Z,101314.49
2018-06-01T02:23:18.930Z,101311.81
2018-06-01T02:24:23.004Z,101315.45
2018-06-01T02:25:27.075Z,101319.55
2018-06-01T02:26:31.236Z,101313.69
2018-06-01T02:27:35.286Z,101316.12
2018-06-01T02:28:39.656Z,101313.80
2018-06-01T02:29:43.844Z,101319.67
2018-06-01T02:30:48.244Z,101314.22
2018-06-01T02:31:52.295Z,101315.70
2018-06-01T02:32:56.363Z,101320.36
2018-06-01T02:34:00.439Z,101321.66
2018-06-01T02:35:04.874Z,101315.63
2018-06-01T02:36:08.956Z,101315.54
2018-06-01T02:37:13.054Z,101317.52
2018-06-01T02:38:17.816Z,101321.91
2018-06-01T02:39:21.996Z,101319.17
2018-06-01T02:40:26.116Z,101318.75
2018-06-01T02:41:30.522Z,101312.77
2018-06-01T02:42:34.692Z,101323.26
2018-06-01T02:43:38.758Z,101319.64
2018-06-01T02:44:42.832Z,101327.49
2018-06-01T02:45:47.066Z,101326.62
2018-06-01T02:46:51.148Z,101332.06
2018-06-01T02:47:55.232Z,101332.72
2018-06-01T02:48:59.358Z,101331.95
2018-06-01T02:50:03.495Z,101335.91
2018-06-01T02:51:07.595Z,101336.70
2018-06-01T02:52:11.737Z,101333.62
2018-06-01T02:53:15.784Z,101337.00
2018-06-01T02:54:21.122Z,101330.36
2018-06-01T02:55:25.205Z,101329.28
2018-06-01T02:56:29.317Z,101332.48
2018-06-01T02:57:33.404Z,101336.50
2018-06-01T02:58:37.460Z,101334.41
2018-06-01T02:59:41.804Z,101334.84
2018-06-01T03:00:46.650Z,101338.11
2018-06-01T03:01:50.991Z,101334.44
2018-06-01T03:02:55.370Z,101332.09
2018-06-01T03:03:59.466Z,101336.31
2018-06-01T03:05:03.632Z,101336.66
2018-06-01T03:06:07.700Z,101340.42
2018-06-01T03:07:13.860Z,101343.03
2018-06-01T03:08:17.968Z,101344.59
2018-06-01T03:09:22.946Z,101352.56
2018-06-01T03:10:27.088Z,101360.45
2018-06-01T03:11:31.152Z,101367.03
2018-06-01T03:12:35.206Z,101360.89
2018-06-01T03:13:39.562Z,101363.70
2018-06-01T03:14:43.717Z,101364.16
2018-06-01T03:15:47.910Z,101365.94
2018-06-01T03:16:51.962Z,101370.88
2018-06-01T03:17:56.037Z,101359.31
2018-06-01T03:19:00.186Z,101369.11
2018-06-01T03:20:04.554Z,101361.61
2018-06-01T03:21:08.652Z,101371.08
2018-06-01T03:22:13.583Z,101373.95
2018-06-01T03:23:17.643Z,101367.62
2018-06-01T03:24:21.734Z,101365.30
2018-06-01T03:25:25.826Z,101359.94
2018-06-01T03:26:30.246Z,101362.42
2018-06-01T03:27:34.357Z,101358.72
2018-06-01T03:28:38.440Z,101362.66
2018-06-01T03:29:42.502Z,101352.73
2018-06-01T03:30:46.810Z,101353.90
2018-06-01T03:31:50.897Z,101355.11
2018-06-01T03:32:55.000Z,101351.19
2018-06-01T03:33:59.108Z,101348.89
2018-06-01T03:35:03.272Z,101353.44
2018-06-01T03:36:07.716Z,101350.78
2018-06-01T03:37:13.920Z,101345.08
2018-06-01T03:38:19.158Z,101345.27
2018-06-01T03:39:23.544Z,101345.84
2018-06-01T03:40:27.659Z,101343.53
2018-06-01T03:41:31.726Z,101347.10
2018-06-01T03:42:35.854Z,101346.67
2018-06-01T03:43:39.926Z,101344.45
2018-06-01T03:44:43.994Z,101342.91
2018-06-01T03:45:48.888Z,101342.08
2018-06-01T03:46:53.089Z,101344.20
2018-06-01T03:47:57.155Z,101347.98
2018-06-01T03:49:01.240Z,101349.19
2018-06-01T03:50:05.367Z,101351.55
2018-06-01T03:51:09.428Z,101353.88
2018-06-01T03:52:13.796Z,101352.38
2018-06-01T03:53:17.956Z,101347.65
2018-06-01T03:54:22.333Z,101343.83
2018-06-01T03:55:26.670Z,101350.02
2018-06-01T03:56:30.765Z,101346.09
2018-06-01T03:57:34.900Z,101341.16
2018-06-01T03:58:39.006Z,101338.40
2018-06-01T03:59:43.086Z,101339.95
2018-06-01T04:00:47.301Z,101333.33
2018-06-01T04:01:51.356Z,101337.48
2018-06-01T04:02:55.538Z,101337.12
2018-06-01T04:03:59.630Z,101333.62
2018-06-01T04:05:03.998Z,101337.78
2018-06-01T04:06:08.095Z,101336.34
2018-06-01T04:07:12.580Z,101339.31
2018-06-01T04:08:17.180Z,101338.23
2018-06-01T04:09:26.227Z,101332.11
2018-06-01T04:10:30.302Z,101338.81
2018-06-01T04:11:34.759Z,101341.80
2018-06-01T04:12:38.814Z,101343.68
2018-06-01T04:13:43.374Z,101338.57
2018-06-01T04:14:47.776Z,101338.91
2018-06-01T04:15:52.051Z,101342.53
2018-06-01T04:16:56.143Z,101335.25
2018-06-01T04:18:00.888Z,101335.51
2018-06-01T04:19:05.323Z,101339.73
2018-06-01T04:20:09.419Z,101327.84
2018-06-01T04:21:13.562Z,101333.86
2018-06-01T04:22:17.628Z,101333.24
2018-06-01T04:23:22.700Z,101329.81
2018-06-01T04:24:27.580Z,101327.05
2018-06-01T04:25:31.669Z,101330.25
2018-06-01T04:26:35.726Z,101331.77
2018-06-01T04:27:39.859Z,101328.84
2018-06-01T04:28:43.937Z,101328.23
2018-06-01T04:29:48.403Z,101318.20
2018-06-01T04:30:53.539Z,101314.87
2018-06-01T04:31:57.613Z,101316.48
2018-06-01T04:33:01.719Z,101314.16
2018-06-01T04:34:05.791Z,101318.73
2018-06-01T04:35:09.925Z,101318.08
2018-06-01T04:36:14.289Z,101315.67
2018-06-01T04:37:18.901Z,101315.86
2018-06-01T04:38:24.043Z,101321.91
2018-06-01T04:39:28.122Z,101319.59
2018-06-01T04:40:32.239Z,101326.34
2018-06-01T04:41:36.418Z,101330.78
2018-06-01T04:42:40.783Z,101327.14
2018-06-01T04:43:44.863Z,101328.72
2018-06-01T04:44:49.001Z,101329.92
2018-06-01T04:45:53.423Z,101325.47
2018-06-01T04:46:58.103Z,101322.60
2018-06-01T04:48:02.526Z,101326.56
2018-06-01T04:49:06.789Z,101325.34
2018-06-01T04:50:10.861Z,101328.36
2018-06-01T04:51:14.936Z,101326.34
2018-06-01T04:52:18.997Z,101328.66
2018-06-01T04:53:23.602Z,101325.21
2018-06-01T04:54:27.666Z,101322.50
2018-06-01T04:55:32.137Z,101318.94
2018-06-01T04:56:36.260Z,101321.84
2018-06-01T04:57:40.323Z,101316.02
2018-06-01T04:58:44.435Z,101315.26
2018-06-01T04:59:48.605Z,101319.98
2018-06-01T05:00:52.815Z,101317.36
2018-06-01T05:01:57.241Z,101308.13
2018-06-01T05:03:01.299Z,101320.00
2018-06-01T05:04:05.385Z,101312.27
2018-06-01T05:05:09.545Z,101313.54
2018-06-01T05:06:14.109Z,101310.61
2018-06-01T05:07:18.193Z,101316.78
2018-06-01T05:08:22.343Z,101311.83
2018-06-01T05:09:26.459Z,101313.22
2018-06-01T05:10:30.515Z,101313.86
2018-06-01T05:11:35.011Z,101310.31
2018-06-01T05:12:39.384Z,101315.97
2018-06-01T05:13:43.861Z,101313.91
2018-06-01T05:14:47.937Z,101310.95
2018-06-01T05:15:52.342Z,101310.70
2018-06-01T05:16:56.450Z,101308.16
2018-06-01T05:18:00.519Z,101310.22
2018-06-01T05:19:04.635Z,101310.02
2018-06-01T05:20:08.693Z,101308.34
2018-06-01T05:21:12.835Z,101311.33
2018-06-01T05:22:16.960Z,101308.18
2018-06-01T05:23:21.010Z,101312.93
2018-06-01T05:24:25.069Z,101306.90
2018-06-01T05:25:29.506Z,101304.16
2018-06-01T05:26:33.626Z,101302.48
2018-06-01T05:27:37.683Z,101307.17
2018-06-01T05:28:41.981Z,101305.95
2018-06-01T05:29:46.042Z,101309.56
2018-06-01T05:30:50.599Z,101302.28
2018-06-01T05:31:54.992Z,101305.53
2018-06-01T05:32:59.092Z,101300.55
2018-06-01T05:34:03.161Z,101300.69
2018-06-01T05:35:07.340Z,101298.33
2018-06-01T05:36:11.474Z,101300.38
2018-06-01T05:37:15.581Z,101295.53
2018-06-01T05:38:19.971Z,101302.07
2018-06-01T05:39:24.123Z,101303.06
2018-06-01T05:40:28.176Z,101308.65
2018-06-01T05:41:32.280Z,101299.05
2018-06-01T05:42:36.383Z,101300.33
2018-06-01T05:43:40.522Z,101305.48
2018-06-01T05:44:44.589Z,101302.70
2018-06-01T05:45:48.812Z,101298.22
2018-06-01T05:46:52.958Z,101298.52
2018-06-01T05:47:57.004Z,101300.87
2018-06-01T05:49:01.070Z,101302.88
2018-06-01T05:50:05.169Z,101302.73
2018-06-01T05:51:09.610Z,101298.52
2018-06-01T05:52:13.660Z,101300.38
2018-06-01T05:53:17.708Z,101298.12
2018-06-01T05:54:21.882Z,101302.97
2018-06-01T05:55:26.005Z,101295.03
2018-06-01T05:56:30.094Z,101303.55
2018-06-01T05:57:34.538Z,101308.78
2018-06-01T05:58:39.500Z,101304.97
2018-06-01T05:59:43.652Z,101298.01
2018-06-01T06:00:49.162Z,101301.72
2018-06-01T06:01:53.464Z,101298.70
2018-06-01T06:02:57.830Z,101305.26
2018-06-01T06:04:02.441Z,101303.23
2018-06-01T06:05:06.497Z,101315.42
2018-06-01T06:06:10.631Z,101310.30
2018-06-01T06:07:14.779Z,101317.12
2018-06-01T06:08:18.823Z,101311.64
2018-06-01T06:09:23.212Z,101314.34
2018-06-01T06:10:27.292Z,101307.41
2018-06-01T06:11:31.430Z,101317.26
2018-06-01T06:12:35.524Z,101313.62
2018-06-01T06:13:39.609Z,101311.00
2018-06-01T06:14:43.744Z,101317.73
2018-06-01T06:15:48.258Z,101320.70
2018-06-01T06:16:52.304Z,101312.20
2018-06-01T06:17:56.437Z,101314.09
2018-06-01T06:19:00.507Z,101313.89
2018-06-01T06:20:04.786Z,101318.30
2018-06-01T06:21:08.853Z,101317.68
2018-06-01T06:22:13.236Z,101312.93
2018-06-01T06:23:17.288Z,101323.62
2018-06-01T06:24:21.386Z,101323.97
2018-06-01T06:25:25.439Z,101322.75
2018-06-01T06:26:29.486Z,101322.33
2018-06-01T06:27:33.644Z,101316.47
2018-06-01T06:28:38.259Z,101320.88
2018-06-01T06:29:43.286Z,101321.44
2018-06-01T06:30:47.660Z,101318.23
2018-06-01T06:31:52.254Z,101323.27
2018-06-01T06:32:56.386Z,101320.69
2018-06-01T06:34:01.833Z,101321.39
2018-06-01T06:35:05.982Z,101327.03
2018-06-01T06:36:10.090Z,101331.62
2018-06-01T06:37:14.188Z,101333.22
2018-06-01T06:38:18.243Z,101325.66
2018-06-01T06:39:22.610Z,101333.11
2018-06-01T06:40:26.910Z,101330.44
2018-06-01T06:41:31.340Z,101331.95
2018-06-01T06:42:35.531Z,101336.00
2018-06-01T06:43:39.610Z,101337.47
2018-06-01T06:44:44.278Z,101339.84
2018-06-01T06:45:48.656Z,101341.97
2018-06-01T06:46:53.256Z,101341.48
2018-06-01T06:47:57.336Z,101336.14
2018-06-01T06:49:01.381Z,101338.64
2018-06-01T06:50:05.490Z,101327.12
2018-06-01T06:51:09.565Z,101331.69
2018-06-01T06:52:13.632Z,101333.17
2018-06-01T06:53:18.193Z,101338.63
2018-06-01T06:54:22.330Z,101334.39
2018-06-01T06:55:26.388Z,101339.27
2018-06-01T06:56:30.532Z,101337.59
2018-06-01T06:57:34.610Z,101336.29
2018-06-01T06:58:38.673Z,101338.68
2018-06-01T06:59:43.264Z,101329.52
2018-06-01T07:00:47.569Z,101338.03
2018-06-01T07:01:51.757Z,101338.16
2018-06-01T07:02:56.444Z,101337.52
2018-06-01T07:04:00.526Z,101335.16
2018-06-01T07:05:05.125Z,101332.42
2018-06-01T07:06:09.214Z,101336.87
2018-06-01T07:07:13.504Z,101332.14
2018-06-01T07:08:17.698Z,101330.04
2018-06-01T07:09:21.784Z,101332.73
2018-06-01T07:10:25.982Z,101330.12
2018-06-01T07:11:30.359Z,101328.97
2018-06-01T07:12:34.424Z,101331.36
2018-06-01T07:13:39.312Z,101328.85
2018-06-01T07:14:43.414Z,101331.70
2018-06-01T07:15:48.322Z,101328.22
2018-06-01T07:16:53.962Z,101338.17
2018-06-01T07:17:58.960Z,101326.52
2018-06-01T07:19:03.113Z,101335.70
2018-06-01T07:20:07.174Z,101330.84
2018-06-01T07:21:11.252Z,101325.72
2018-06-01T07:22:15.416Z,101324.09
2018-06-01T07:23:19.544Z,101324.82
2018-06-01T07:24:23.924Z,101327.72
2018-06-01T07:25:28.020Z,101326.92
2018-06-01T07:26:32.207Z,101325.40
2018-06-01T07:27:36.474Z,101323.38
2018-06-01T07:28:40.670Z,101326.52
2018-06-01T07:29:44.768Z,101327.67
2018-06-01T07:30:50.110Z,101323.08
2018-06-01T07:31:54.518Z,101319.55
2018-06-01T07:32:59.164Z,101322.23
2018-06-01T07:34:03.312Z,101323.80
2018-06-01T07:35:07.492Z,101314.60
2018-06-01T07:36:11.618Z,101317.59
2018-06-01T07:37:16.010Z,101319.34
2018-06-01T07:38:20.076Z,101320.72
2018-06-01T07:39:24.224Z,101320.02
2018-06-01T07:40:28.328Z,101320.06
2018-06-01T07:41:32.392Z,101316.23
2018-06-01T07:42:36.472Z,101316.90
2018-06-01T07:43:40.944Z,101317.58
2018-06-01T07:44:45.015Z,101315.98
2018-06-01T07:45:49.672Z,101317.88
2018-06-01T07:46:53.750Z,101319.50
2018-06-01T07:47:58.564Z,101315.72
2018-06-01T07:49:03.614Z,101316.34
2018-06-01T07:50:08.496Z,101320.23
2018-06-01T07:51:12.645Z,101317.78
2018-06-01T07:52:16.719Z,101318.24
2018-06-01T07:53:20.800Z,101317.00
2018-06-01T07:54:24.931Z,101317.12
2018-06-01T07:55:29.019Z,101317.69
2018-06-01T07:56:33.078Z,101318.13
2018-06-01T07:57:37.134Z,101320.98
2018-06-01T07:58:41.307Z,101320.66
2018-06-01T07:59:45.397Z,101323.14
2018-06-01T08:00:49.927Z,101323.51
2018-06-01T08:01:54.325Z,101327.11
2018-06-01T08:02:59.563Z,101315.70
2018-06-01T08:04:04.403Z,101323.56
2018-06-01T08:05:08.586Z,101324.95
2018-06-01T08:06:12.701Z,101316.60
2018-06-01T08:07:16.781Z,101319.72
2018-06-01T08:08:21.170Z,101321.10
2018-06-01T08:09:25.290Z,101324.14
2018-06-01T08:10:29.356Z,101330.19
2018-06-01T08:11:33.409Z,101332.80
2018-06-01T08:12:37.560Z,101331.11
2018-06-01T08:13:41.638Z,101335.17
2018-06-01T08:14:46.071Z,101341.36
2018-06-01T08:15:50.596Z,101332.73
2018-06-01T08:16:54.661Z,101337.28
2018-06-01T08:17:58.810Z,101338.49
2018-06-01T08:19:03.742Z,101343.81
2018-06-01T08:20:07.840Z,101339.30
2018-06-01T08:21:11.948Z,101339.03
2018-06-01T08:22:16.046Z,101331.07
2018-06-01T08:23:20.205Z,101335.40
2018-06-01T08:24:24.295Z,101336.59
2018-06-01T08:25:28.353Z,101340.38
2018-06-01T08:26:32.466Z,101338.31
2018-06-01T08:27:36.822Z,101334.27
2018-06-01T08:28:40.938Z,101337.14
2018-06-01T08:29:45.077Z,101334.88
2018-06-01T08:30:49.422Z,101328.60
2018-06-01T08:31:53.497Z,101332.39
2018-06-01T08:32:57.680Z,101336.27
2018-06-01T08:34:03.234Z,101326.34
2018-06-01T08:35:08.140Z,101321.87
2018-06-01T08:36:12.262Z,101326.49
2018-06-01T08:37:16.520Z,101327.52
2018-06-01T08:38:20.595Z,101320.53
2018-06-01T08:39:25.454Z,101327.63
2018-06-01T08:40:29.460Z,101326.25
2018-06-01T08:41:33.516Z,101321.40
2018-06-01T08:42:37.715Z,101329.26
2018-06-01T08:43:41.864Z,101320.20
2018-06-01T08:44:46.044Z,101320.79
2018-06-01T08:45:50.924Z,101318.73
2018-06-01T08:46:55.086Z,101313.53
2018-06-01T08:47:59.254Z,101313.66
2018-06-01T08:49:03.922Z,101327.14
2018-06-01T08:50:09.106Z,101319.97
2018-06-01T08:51:13.550Z,101322.06
2018-06-01T08:52:17.632Z,101321.91
2018-06-01T08:53:21.726Z,101324.14
2018-06-01T08:54:25.802Z,101324.97
2018-06-01T08:55:29.934Z,101328.92
2018-06-01T08:56:34.151Z,101327.55
2018-06-01T08:57:38.566Z,101327.03
2018-06-01T08:58:42.664Z,101328.48
2018-06-01T08:59:46.858Z,101326.80
2018-06-01T09:00:51.370Z,101330.34
2018-06-01T09:01:55.436Z,101324.80
2018-06-01T09:02:59.502Z,101324.52
2018-06-01T09:04:03.962Z,101332.41
2018-06-01T09:05:08.122Z,101335.88
2018-06-01T09:06:12.184Z,101334.05
2018-06-01T09:07:16.296Z,101337.00
2018-06-01T09:08:20.350Z,101330.79
2018-06-01T09:09:24.528Z,101334.91
2018-06-01T09:10:28.943Z,101333.55
2018-06-01T09:11:33.091Z,101330.55
2018-06-01T09:12:37.196Z,101325.54
2018-06-01T09:13:41.306Z,101329.70
2018-06-01T09:14:45.452Z,101332.23
2018-06-01T09:15:50.266Z,101325.73
2018-06-01T09:16:54.638Z,101326.06
2018-06-01T09:17:58.712Z,101326.56
2018-06-01T09:19:03.303Z,101320.80
2018-06-01T09:20:07.357Z,101323.22
2018-06-01T09:21:12.144Z,101330.33
2018-06-01T09:22:16.258Z,101321.75
2018-06-01T09:23:20.688Z,101326.69
2018-06-01T09:24:24.833Z,101329.34
2018-06-01T09:25:28.921Z,101324.80
2018-06-01T09:26:33.045Z,101331.11
2018-06-01T09:27:37.102Z,101332.47
2018-06-01T09:28:41.266Z,101331.54
2018-06-01T09:29:45.670Z,101330.73
2018-06-01T09:30:50.072Z,101325.40
2018-06-01T09:31:54.146Z,101324.68
2018-06-01T09:32:58.213Z,101328.39
2018-06-01T09:34:03.377Z,101329.55
2018-06-01T09:35:07.524Z,101322.19
2018-06-01T09:36:12.852Z,101325.42
2018-06-01T09:37:16.914Z,101324.70
2018-06-01T09:38:21.066Z,101323.30
2018-06-01T09:39:25.138Z,101319.22
2018-06-01T09:40:29.208Z,101313.03
2018-06-01T09:41:33.274Z,101325.55
2018-06-01T09:42:37.356Z,101326.08
2018-06-01T09:43:41.568Z,101317.53
2018-06-01T09:44:45.645Z,101317.59
2018-06-01T09:45:50.374Z,101320.98
2018-06-01T09:46:54.936Z,101319.98
2018-06-01T09:47:59.092Z,101311.20
2018-06-01T09:49:03.691Z,101316.05
2018-06-01T09:50:08.636Z,101320.25
2018-06-01T09:51:13.534Z,101321.47
2018-06-01T09:52:17.775Z,101322.83
2018-06-01T09:53:22.210Z,101315.83
2018-06-01T09:54:26.293Z,101322.34
2018-06-01T09:55:30.521Z,101313.72
2018-06-01T09:56:34.555Z,101314.27
2018-06-01T09:57:38.616Z,101313.35
2018-06-01T09:58:42.701Z,101310.52
2018-06-01T09:59:47.090Z,101310.54
2018-06-01T10:00:55.317Z,101311.94
2018-06-01T10:01:59.408Z,101306.64
2018-06-01T10:03:03.712Z,101308.69
2018-06-01T10:04:07.793Z,101312.63
2018-06-01T10:05:12.013Z,101306.08
2018-06-01T10:06:16.358Z,101309.30
2018-06-01T10:07:20.432Z,101308.99
2018-06-01T10:08:24.512Z,101313.62
2018-06-01T10:09:28.647Z,101311.73
2018-06-01T10:10:37.255Z,101310.68
2018-06-01T10:11:41.304Z,101308.95
2018-06-01T10:12:45.453Z,101303.65
2018-06-01T10:13:49.536Z,101305.59
2018-06-01T10:14:53.722Z,101304.02
2018-06-01T10:15:58.108Z,101310.34
2018-06-01T10:17:03.097Z,101310.90
2018-06-01T10:18:08.179Z,101311.60
2018-06-01T10:19:12.756Z,101314.30
2018-06-01T10:20:16.875Z,101306.66
2018-06-01T10:21:20.967Z,101307.93
2018-06-01T10:22:25.130Z,101309.10
2018-06-01T10:23:29.492Z,101309.31
2018-06-01T10:24:33.588Z,101317.58
2018-06-01T10:25:37.745Z,101315.22
2018-06-01T10:26:41.849Z,101310.17
2018-06-01T10:27:46.050Z,101312.75
2018-06-01T10:28:50.179Z,101304.77
2018-06-01T10:29:54.558Z,101309.53
2018-06-01T10:30:59.081Z,101303.80
2018-06-01T10:32:03.352Z,101301.39
2018-06-01T10:33:08.431Z,101296.84
2018-06-01T10:34:12.504Z,101301.31
2018-06-01T10:35:16.693Z,101301.44
2018-06-01T10:36:21.151Z,101293.44
2018-06-01T10:37:25.222Z,101287.47
2018-06-01T10:38:29.381Z,101290.63
2018-06-01T10:39:33.476Z,101293.50
2018-06-01T10:40:37.643Z,101290.78
2018-06-01T10:41:41.777Z,101298.11
2018-06-01T10:42:45.863Z,101292.28
2018-06-01T10:43:49.943Z,101291.45
2018-06-01T10:44:54.112Z,101288.80
2018-06-01T10:45:59.534Z,101288.80
2018-06-01T10:47:03.659Z,101286.42
2018-06-01T10:48:07.765Z,101287.49
2018-06-01T10:49:12.379Z,101293.28
2018-06-01T10:50:16.469Z,101287.41
2018-06-01T10:51:20.527Z,101284.59
2018-06-01T10:52:24.629Z,101280.06
2018-06-01T10:53:28.773Z,101277.86
2018-06-01T10:54:32.955Z,101272.27
2018-06-01T10:55:37.403Z,101273.56
2018-06-01T10:56:41.483Z,101275.56
2018-06-01T10:57:45.684Z,101273.11
2018-06-01T10:58:49.824Z,101270.20
2018-06-01T10:59:53.949Z,101278.49
2018-06-01T11:00:58.720Z,101276.46
2018-06-01T11:02:03.191Z,101282.84
2018-06-01T11:03:07.258Z,101284.23
2018-06-01T11:04:11.336Z,101284.90
2018-06-01T11:05:15.427Z,101287.52
2018-06-01T11:06:19.603Z,101290.87
2018-06-01T11:07:23.708Z,101289.42
2018-06-01T11:08:27.783Z,101288.07
2018-06-01T11:09:32.024Z,101287.08
2018-06-01T11:10:36.107Z,101288.80
2018-06-01T11:11:40.209Z,101287.90
2018-06-01T11:12:44.591Z,101284.08
2018-06-01T11:13:48.737Z,101286.92
2018-06-01T11:14:52.885Z,101285.47
2018-06-01T11:15:57.265Z,101290.39
2018-06-01T11:17:01.379Z,101284.02
2018-06-01T11:18:06.435Z,101284.66
2018-06-01T11:19:11.063Z,101279.81
2018-06-01T11:20:15.173Z,101281.19
2018-06-01T11:21:19.274Z,101283.03
2018-06-01T11:22:23.437Z,101274.02
2018-06-01T11:23:27.496Z,101276.22
2018-06-01T11:24:31.594Z,101272.84
2018-06-01T11:25:35.977Z,101268.69
2018-06-01T11:26:40.136Z,101269.28
2018-06-01T11:27:44.227Z,101263.33
2018-06-01T11:28:48.316Z,101270.45
2018-06-01T11:29:52.464Z,101264.23
2018-06-01T11:30:56.645Z,101262.92
2018-06-01T11:32:01.390Z,101263.39
2018-06-01T11:33:05.739Z,101263.09
2018-06-01T11:34:09.841Z,101259.17
2018-06-01T11:35:13.999Z,101253.50
2018-06-01T11:36:18.069Z,101257.95
2018-06-01T11:37:22.488Z,101250.16
2018-06-01T11:38:26.879Z,101251.09
2018-06-01T11:39:30.991Z,101250.03
2018-06-01T11:40:35.035Z,101249.98
2018-06-01T11:41:39.167Z,101254.36
2018-06-01T11:42:43.232Z,101251.29
2018-06-01T11:43:47.409Z,101256.30
2018-06-01T11:44:51.559Z,101255.53
2018-06-01T11:45:56.099Z,101265.92
2018-06-01T11:47:02.656Z,101262.19
2018-06-01T11:48:07.247Z,101268.55
2018-06-01T11:49:11.524Z,101265.36
2018-06-01T11:50:16.169Z,101263.14
2018-06-01T11:51:20.256Z,101262.73
2018-06-01T11:52:24.391Z,101258.94
2018-06-01T11:53:28.448Z,101262.10
2018-06-01T11:54:32.840Z,101261.97
2018-06-01T11:55:36.939Z,101254.24
2018-06-01T11:56:41.105Z,101255.71
2018-06-01T11:57:45.177Z,101249.38
2018-06-01T11:58:49.302Z,101251.34
2018-06-01T11:59:53.407Z,101248.05
2018-06-01T12:00:58.195Z,101239.69
2018-06-01T12:02:02.487Z,101239.50
2018-06-01T12:03:06.806Z,101240.22
2018-06-01T12:04:11.473Z,101236.83
2018-06-01T12:05:15.907Z,101232.33
2018-06-01T12:06:20.051Z,101231.80
2018-06-01T12:07:24.525Z,101231.09
2018-06-01T12:08:31.476Z,101235.44
2018-06-01T12:09:35.578Z,101225.36
2018-06-01T12:10:39.685Z,101227.13
2018-06-01T12:11:43.830Z,101225.34
2018-06-01T12:12:47.895Z,101226.98
2018-06-01T12:13:51.997Z,101224.11
2018-06-01T12:14:56.105Z,101220.92